createdAt,value
2023-04-16T00:00:31.748Z,10.68
2023-04-16T00:03:02.136Z,10.65
2023-04-16T00:05:32.425Z,10.67
2023-04-16T00:08:02.642Z,10.65
2023-04-16T00:10:32.815Z,10.64
2023-04-16T00:13:05.770Z,10.66
2023-04-16T00:15:36.049Z,10.62
2023-04-16T00:18:06.373Z,10.64
2023-04-16T00:20:36.565Z,10.67
2023-04-16T00:23:06.877Z,10.67
2023-04-16T00:25:37.039Z,10.62
2023-04-16T00:28:11.095Z,10.61
2023-04-16T00:30:41.493Z,10.59
2023-04-16T00:33:11.691Z,10.58
2023-04-16T00:35:42.082Z,10.58
2023-04-16T00:38:12.289Z,10.53
2023-04-16T00:40:42.652Z,10.54
2023-04-16T00:43:15.578Z,10.51
2023-04-16T00:45:45.829Z,10.55
2023-04-16T00:48:16.286Z,10.51
2023-04-16T00:50:46.564Z,10.44
2023-04-16T00:53:17.351Z,10.37
2023-04-16T00:55:48.104Z,10.25
2023-04-16T00:58:21.749Z,10.19
2023-04-16T01:00:52.348Z,10.17
2023-04-16T01:03:22.753Z,10.15
2023-04-16T01:05:53.221Z,10.11
2023-04-16T01:08:24.496Z,10.03
2023-04-16T01:10:54.813Z,9.97
2023-04-16T01:13:27.916Z,9.99
2023-04-16T01:15:58.197Z,9.94
2023-04-16T01:18:29.603Z,9.97
2023-04-16T01:21:02.750Z,9.99
2023-04-16T01:23:36.015Z,9.99
2023-04-16T01:26:06.672Z,10.00
2023-04-16T01:28:36.927Z,10.00
2023-04-16T01:31:07.504Z,10.00
2023-04-16T01:34:10.037Z,10.02
2023-04-16T01:36:43.017Z,10.00
2023-04-16T01:39:15.906Z,10.00
2023-04-16T01:41:46.705Z,10.05
2023-04-16T01:44:16.918Z,10.08
2023-04-16T01:46:48.036Z,10.09
2023-04-16T01:49:18.859Z,10.13
2023-04-16T01:51:51.887Z,10.17
2023-04-16T01:54:22.111Z,10.19
2023-04-16T01:56:52.310Z,10.21
2023-04-16T01:59:22.487Z,10.26
2023-04-16T02:01:52.925Z,10.24
2023-04-16T02:04:23.323Z,10.23
2023-04-16T02:06:56.194Z,10.26
2023-04-16T02:09:26.914Z,10.26
2023-04-16T02:11:57.367Z,10.30
2023-04-16T02:14:27.681Z,10.26
2023-04-16T02:16:57.944Z,10.30
2023-04-16T02:19:41.636Z,10.31
2023-04-16T02:22:15.981Z,10.31
2023-04-16T02:24:46.365Z,10.24
2023-04-16T02:27:16.772Z,10.15
2023-04-16T02:29:47.141Z,10.08
2023-04-16T02:32:20.558Z,10.04
2023-04-16T02:34:51.075Z,10.06
2023-04-16T02:37:23.898Z,10.04
2023-04-16T02:39:54.279Z,10.00
2023-04-16T02:42:24.544Z,9.96
2023-04-16T02:44:54.766Z,9.93
2023-04-16T02:47:25.041Z,9.89
2023-04-16T02:49:55.300Z,9.87
2023-04-16T02:52:28.174Z,9.84
2023-04-16T02:54:58.340Z,9.88
2023-04-16T02:57:28.587Z,9.82
2023-04-16T02:59:58.811Z,9.89
2023-04-16T03:02:29.336Z,9.94
2023-04-16T03:04:59.633Z,9.97
2023-04-16T03:07:32.519Z,9.97
2023-04-16T03:10:02.982Z,9.97
2023-04-16T03:12:33.227Z,10.03
2023-04-16T03:15:03.624Z,10.10
2023-04-16T03:17:33.934Z,10.12
2023-04-16T03:20:05.237Z,10.11
2023-04-16T03:22:38.589Z,10.14
2023-04-16T03:25:09.640Z,10.17
2023-04-16T03:27:39.927Z,10.19
2023-04-16T03:30:11.439Z,10.17
2023-04-16T03:32:41.892Z,10.15
2023-04-16T03:35:13.413Z,10.18
2023-04-16T03:37:46.619Z,10.20
2023-04-16T03:40:17.632Z,10.24
2023-04-16T03:42:47.835Z,10.23
2023-04-16T03:45:18.164Z,10.24
2023-04-16T03:47:53.043Z,10.21
2023-04-16T03:50:26.362Z,10.19
2023-04-16T03:52:59.247Z,10.11
2023-04-16T03:55:29.552Z,9.98
2023-04-16T03:58:03.321Z,9.96
2023-04-16T04:00:35.212Z,9.97
2023-04-16T04:03:17.493Z,9.91
2023-04-16T04:05:49.840Z,9.84
2023-04-16T04:08:29.938Z,9.78
2023-04-16T04:11:00.201Z,9.78
2023-04-16T04:13:31.200Z,9.73
2023-04-16T04:16:02.069Z,9.72
2023-04-16T04:18:33.074Z,9.73
2023-04-16T04:21:03.411Z,9.71
2023-04-16T04:23:36.637Z,9.67
2023-04-16T04:26:07.845Z,9.71
2023-04-16T04:28:38.569Z,9.69
2023-04-16T04:31:08.992Z,9.66
2023-04-16T04:33:39.238Z,9.65
2023-04-16T04:36:10.854Z,9.63
2023-04-16T04:38:43.774Z,9.59
2023-04-16T04:41:14.045Z,9.65
2023-04-16T04:43:44.238Z,9.72
2023-04-16T04:46:15.593Z,9.79
2023-04-16T04:48:46.162Z,9.79
2023-04-16T04:51:16.491Z,9.79
2023-04-16T04:53:51.794Z,9.77
2023-04-16T04:56:22.017Z,9.66
2023-04-16T04:58:53.042Z,9.57
2023-04-16T05:01:23.799Z,9.54
2023-04-16T05:03:54.272Z,9.51
2023-04-16T05:06:24.626Z,9.48
2023-04-16T05:08:57.508Z,9.55
2023-04-16T05:11:27.740Z,9.66
2023-04-16T05:13:57.942Z,9.77
2023-04-16T05:16:28.163Z,9.80
2023-04-16T05:18:58.917Z,9.94
2023-04-16T05:21:29.391Z,9.99
2023-04-16T05:24:02.297Z,10.05
2023-04-16T05:26:32.512Z,10.10
2023-04-16T05:29:02.740Z,10.11
2023-04-16T05:31:32.965Z,10.10
2023-04-16T05:34:03.165Z,10.12
2023-04-16T05:36:33.474Z,10.10
2023-04-16T05:39:08.146Z,10.09
2023-04-16T05:41:38.589Z,10.09
2023-04-16T05:44:08.902Z,10.05
2023-04-16T05:46:39.280Z,10.05
2023-04-16T05:49:09.777Z,10.10
2023-04-16T05:51:40.221Z,10.22
2023-04-16T05:54:13.163Z,10.31
2023-04-16T05:56:43.571Z,10.39
2023-04-16T05:59:13.822Z,10.46
2023-04-16T06:01:44.459Z,10.53
2023-04-16T06:04:14.953Z,10.58
2023-04-16T06:06:45.266Z,10.68
2023-04-16T06:09:18.477Z,10.74
2023-04-16T06:11:48.682Z,10.70
2023-04-16T06:14:18.883Z,10.64
2023-04-16T06:16:49.508Z,10.65
2023-04-16T06:19:19.703Z,10.69
2023-04-16T06:21:49.919Z,10.80
2023-04-16T06:24:22.807Z,10.82
2023-04-16T06:26:53.161Z,10.83
2023-04-16T06:29:33.564Z,10.79
2023-04-16T06:32:10.810Z,10.80
2023-04-16T06:34:41.743Z,10.85
2023-04-16T06:37:11.970Z,10.88
2023-04-16T06:39:44.919Z,10.92
2023-04-16T06:42:15.149Z,11.00
2023-04-16T06:44:45.365Z,11.13
2023-04-16T06:47:15.719Z,11.16
2023-04-16T06:49:46.083Z,11.22
2023-04-16T06:52:16.510Z,11.32
2023-04-16T06:54:49.356Z,11.47
2023-04-16T06:57:19.698Z,11.58
2023-04-16T06:59:49.875Z,11.69
2023-04-16T07:02:20.250Z,11.68
2023-04-16T07:04:52.566Z,11.77
2023-04-16T07:07:22.805Z,11.82
2023-04-16T07:09:55.757Z,11.95
2023-04-16T07:12:25.995Z,12.10
2023-04-16T07:14:56.880Z,12.14
2023-04-16T07:17:27.194Z,12.09
2023-04-16T07:19:57.395Z,12.18
2023-04-16T07:22:27.584Z,12.20
2023-04-16T07:25:00.381Z,12.37
2023-04-16T07:27:30.569Z,12.54
2023-04-16T07:30:00.814Z,12.72
2023-04-16T07:32:31.180Z,12.89
2023-04-16T07:35:01.416Z,13.09
2023-04-16T07:37:31.704Z,13.16
2023-04-16T07:40:04.761Z,13.23
2023-04-16T07:42:35.074Z,13.25
2023-04-16T07:45:05.265Z,13.24
2023-04-16T07:47:35.796Z,13.33
2023-04-16T07:50:06.236Z,13.43
2023-04-16T07:52:37.547Z,13.48
2023-04-16T07:55:11.259Z,13.49
2023-04-16T07:57:41.784Z,13.46
2023-04-16T08:00:13.296Z,13.48
2023-04-16T08:02:43.910Z,13.59
2023-04-16T08:05:14.200Z,13.42
2023-04-16T08:07:44.608Z,13.49
2023-04-16T08:10:17.526Z,13.69
2023-04-16T08:12:47.733Z,13.90
2023-04-16T08:15:17.974Z,14.03
2023-04-16T08:17:48.271Z,14.17
2023-04-16T08:20:19.351Z,14.09
2023-04-16T08:22:49.817Z,14.22
2023-04-16T08:25:23.907Z,14.31
2023-04-16T08:27:54.150Z,14.37
2023-04-16T08:30:24.410Z,14.42
2023-04-16T08:32:54.800Z,14.37
2023-04-16T08:35:25.154Z,14.30
2023-04-16T08:37:55.369Z,14.46
2023-04-16T08:40:28.869Z,14.49
2023-04-16T08:43:02.057Z,14.79
2023-04-16T08:45:32.582Z,15.03
2023-04-16T08:48:03.119Z,15.10
2023-04-16T08:50:33.694Z,15.07
2023-04-16T08:53:07.648Z,15.24
2023-04-16T08:55:44.132Z,15.40
2023-04-16T08:58:17.215Z,15.45
2023-04-16T09:00:47.565Z,15.55
2023-04-16T09:03:20.133Z,15.68
2023-04-16T09:05:51.481Z,15.72
2023-04-16T09:08:21.801Z,15.70
2023-04-16T09:10:54.689Z,15.84
2023-04-16T09:13:25.182Z,16.01
2023-04-16T09:15:57.376Z,16.05
2023-04-16T09:18:28.356Z,16.19
2023-04-16T09:20:59.016Z,16.44
2023-04-16T09:23:29.261Z,16.74
2023-04-16T09:26:02.674Z,16.88
2023-04-16T09:28:42.465Z,16.88
2023-04-16T09:31:14.364Z,16.88
2023-04-16T09:33:45.345Z,16.86
2023-04-16T09:36:15.647Z,16.77
2023-04-16T09:38:52.822Z,16.79
2023-04-16T09:41:29.117Z,16.60
2023-04-16T09:44:00.442Z,16.26
2023-04-16T09:46:33.596Z,15.88
2023-04-16T09:49:09.370Z,15.54
2023-04-16T09:51:45.129Z,15.33
2023-04-16T09:54:15.845Z,15.31
2023-04-16T09:56:50.279Z,15.36
2023-04-16T09:59:21.181Z,15.16
2023-04-16T10:01:57.338Z,15.27
2023-04-16T10:04:54.073Z,15.52
2023-04-16T10:07:24.854Z,15.74
2023-04-16T10:09:56.232Z,16.04
2023-04-16T10:12:29.590Z,16.10
2023-04-16T10:14:59.821Z,16.37
2023-04-16T10:17:31.176Z,16.50
2023-04-16T10:20:02.200Z,16.50
2023-04-16T10:22:32.389Z,16.36
2023-04-16T10:25:02.799Z,16.39
2023-04-16T10:27:36.116Z,16.49
2023-04-16T10:30:07.265Z,16.31
2023-04-16T10:32:38.328Z,16.35
2023-04-16T10:35:09.851Z,16.31
2023-04-16T10:37:40.806Z,16.40
2023-04-16T10:40:26.140Z,16.50
2023-04-16T10:43:02.810Z,16.87
2023-04-16T10:45:37.618Z,17.27
2023-04-16T10:48:10.177Z,17.37
2023-04-16T10:50:41.642Z,17.48
2023-04-16T10:53:22.211Z,17.28
2023-04-16T10:56:16.105Z,17.18
2023-04-16T10:58:49.203Z,17.17
2023-04-16T11:01:20.291Z,17.27
2023-04-16T11:03:51.062Z,17.39
2023-04-16T11:06:27.979Z,17.63
2023-04-16T11:08:58.427Z,17.66
2023-04-16T11:11:28.921Z,17.68
2023-04-16T11:14:02.660Z,17.63
2023-04-16T11:16:35.045Z,17.48
2023-04-16T11:19:05.265Z,17.46
2023-04-16T11:21:35.570Z,17.48
2023-04-16T11:24:05.791Z,17.61
2023-04-16T11:26:36.235Z,17.70
2023-04-16T11:29:17.335Z,17.70
2023-04-16T11:31:53.858Z,17.52
2023-04-16T11:34:24.686Z,17.23
2023-04-16T11:36:55.585Z,17.09
2023-04-16T11:39:26.533Z,16.76
2023-04-16T11:41:56.961Z,16.73
2023-04-16T11:44:31.079Z,16.87
2023-04-16T11:47:01.442Z,17.36
2023-04-16T11:49:32.034Z,17.72
2023-04-16T11:52:02.765Z,17.61
2023-04-16T11:54:35.147Z,17.56
2023-04-16T11:57:06.747Z,17.61
2023-04-16T12:00:01.074Z,17.97
2023-04-16T12:02:40.986Z,18.19
2023-04-16T12:05:30.990Z,18.70
2023-04-16T12:08:01.747Z,20.04
2023-04-16T12:10:32.333Z,20.99
2023-04-16T12:13:15.910Z,21.43
2023-04-16T12:15:53.654Z,21.19
2023-04-16T12:18:27.168Z,20.68
2023-04-16T12:20:57.634Z,20.60
2023-04-16T12:23:29.732Z,20.19
2023-04-16T12:26:02.904Z,19.81
2023-04-16T12:28:34.946Z,19.12
2023-04-16T12:31:08.672Z,18.73
2023-04-16T12:33:39.073Z,18.17
2023-04-16T12:36:20.955Z,17.76
2023-04-16T12:38:51.179Z,17.56
2023-04-16T12:41:22.173Z,17.54
2023-04-16T12:43:52.389Z,17.46
2023-04-16T12:46:25.372Z,17.87
2023-04-16T12:48:57.035Z,18.06
2023-04-16T12:51:27.449Z,18.39
2023-04-16T12:53:58.110Z,18.47
2023-04-16T12:56:31.384Z,18.74
2023-04-16T12:59:01.863Z,18.90
2023-04-16T13:01:37.349Z,18.64
2023-04-16T13:04:08.040Z,18.39
2023-04-16T13:06:38.671Z,18.67
2023-04-16T13:09:09.329Z,18.61
2023-04-16T13:11:39.793Z,18.56
2023-04-16T13:14:10.039Z,18.62
2023-04-16T13:16:42.976Z,18.91
2023-04-16T13:19:13.505Z,19.10
2023-04-16T13:21:43.926Z,19.36
2023-04-16T13:24:14.177Z,19.22
2023-04-16T13:26:44.528Z,18.84
2023-04-16T13:29:14.888Z,18.43
2023-04-16T13:31:47.999Z,18.22
2023-04-16T13:34:18.590Z,18.56
2023-04-16T13:36:48.910Z,18.71
2023-04-16T13:39:19.509Z,18.99
2023-04-16T13:41:50.584Z,19.26
2023-04-16T13:44:20.883Z,19.15
2023-04-16T13:46:53.826Z,18.87
2023-04-16T13:49:24.082Z,19.19
2023-04-16T13:51:54.217Z,19.49
2023-04-16T13:54:24.446Z,19.67
2023-04-16T13:56:54.686Z,19.73
2023-04-16T13:59:24.903Z,19.29
2023-04-16T14:01:57.774Z,18.98
2023-04-16T14:04:28.118Z,18.61
2023-04-16T14:06:58.379Z,18.36
2023-04-16T14:09:28.618Z,17.95
2023-04-16T14:11:58.823Z,17.70
2023-04-16T14:14:29.118Z,17.65
2023-04-16T14:17:03.549Z,17.58
2023-04-16T14:19:33.772Z,17.50
2023-04-16T14:22:03.996Z,17.29
2023-04-16T14:24:34.210Z,17.13
2023-04-16T14:27:04.516Z,16.96
2023-04-16T14:29:34.724Z,16.90
2023-04-16T14:32:08.396Z,16.80
2023-04-16T14:34:38.798Z,16.76
2023-04-16T14:37:09.250Z,16.43
2023-04-16T14:39:39.615Z,16.21
2023-04-16T14:42:09.847Z,16.05
2023-04-16T14:44:40.430Z,16.03
2023-04-16T14:47:13.272Z,16.08
2023-04-16T14:49:43.437Z,16.03
2023-04-16T14:52:13.739Z,16.03
2023-04-16T14:54:44.090Z,16.12
2023-04-16T14:57:14.340Z,16.43
2023-04-16T14:59:44.822Z,16.72
2023-04-16T15:02:18.090Z,16.70
2023-04-16T15:04:48.630Z,16.91
2023-04-16T15:07:18.915Z,17.16
2023-04-16T15:09:49.168Z,16.96
2023-04-16T15:12:19.588Z,16.83
2023-04-16T15:14:49.800Z,17.46
2023-04-16T15:17:24.034Z,18.39
2023-04-16T15:19:54.735Z,18.94
2023-04-16T15:22:24.948Z,18.45
2023-04-16T15:24:55.209Z,18.09
2023-04-16T15:27:25.589Z,17.56
2023-04-16T15:29:56.016Z,17.01
2023-04-16T15:32:28.908Z,16.71
2023-04-16T15:35:00.161Z,16.47
2023-04-16T15:37:30.399Z,16.14
2023-04-16T15:40:00.695Z,15.98
2023-04-16T15:42:31.025Z,15.81
2023-04-16T15:45:01.338Z,15.71
2023-04-16T15:47:34.362Z,15.49
2023-04-16T15:50:04.636Z,15.47
2023-04-16T15:52:35.009Z,15.38
2023-04-16T15:55:05.588Z,15.27
2023-04-16T15:57:35.949Z,15.19
2023-04-16T16:00:13.569Z,15.01
2023-04-16T16:02:48.102Z,14.93
2023-04-16T16:05:19.523Z,14.91
2023-04-16T16:07:49.815Z,15.03
2023-04-16T16:10:20.644Z,14.99
2023-04-16T16:12:51.005Z,14.95
2023-04-16T16:15:21.322Z,14.99
2023-04-16T16:17:54.319Z,15.02
2023-04-16T16:20:24.940Z,14.95
2023-04-16T16:22:56.783Z,14.79
2023-04-16T16:25:27.477Z,14.73
2023-04-16T16:27:59.055Z,14.65
2023-04-16T16:30:29.356Z,14.46
2023-04-16T16:33:02.324Z,14.44
2023-04-16T16:35:32.608Z,14.34
2023-04-16T16:38:02.894Z,14.26
2023-04-16T16:40:33.877Z,14.23
2023-04-16T16:43:04.197Z,14.22
2023-04-16T16:45:34.756Z,14.14
2023-04-16T16:48:07.894Z,14.09
2023-04-16T16:50:38.151Z,14.03
2023-04-16T16:53:08.393Z,14.02
2023-04-16T16:55:38.565Z,14.02
2023-04-16T16:58:09.544Z,13.97
2023-04-16T17:00:39.904Z,13.92
2023-04-16T17:03:13.030Z,13.86
2023-04-16T17:05:43.385Z,13.80
2023-04-16T17:08:14.143Z,13.78
2023-04-16T17:10:44.385Z,13.81
2023-04-16T17:13:19.919Z,13.78
2023-04-16T17:15:52.824Z,13.70
2023-04-16T17:18:25.654Z,13.60
2023-04-16T17:20:55.870Z,13.49
2023-04-16T17:23:26.125Z,13.46
2023-04-16T17:25:56.492Z,13.38
2023-04-16T17:28:27.301Z,13.38
2023-04-16T17:30:57.794Z,13.36
2023-04-16T17:33:30.660Z,13.31
2023-04-16T17:36:00.934Z,13.19
2023-04-16T17:38:31.300Z,13.10
2023-04-16T17:41:01.569Z,13.09
2023-04-16T17:43:31.830Z,13.04
2023-04-16T17:46:02.157Z,12.99
2023-04-16T17:48:35.080Z,12.99
2023-04-16T17:51:12.153Z,12.89
2023-04-16T17:53:42.805Z,12.85
2023-04-16T17:56:13.177Z,12.76
2023-04-16T17:58:46.324Z,12.69
2023-04-16T18:01:16.577Z,12.67
2023-04-16T18:03:49.898Z,12.63
2023-04-16T18:06:20.398Z,12.67
2023-04-16T18:08:50.885Z,12.77
2023-04-16T18:11:21.407Z,12.79
2023-04-16T18:13:54.215Z,12.67
2023-04-16T18:16:24.836Z,12.71
2023-04-16T18:18:57.902Z,12.65
2023-04-16T18:21:30.006Z,12.65
2023-04-16T18:24:01.258Z,12.64
2023-04-16T18:26:35.711Z,12.56
2023-04-16T18:29:06.520Z,12.53
2023-04-16T18:31:36.799Z,12.50
2023-04-16T18:34:09.796Z,12.47
2023-04-16T18:36:39.997Z,12.46
2023-04-16T18:39:10.470Z,12.47
2023-04-16T18:41:40.976Z,12.44
2023-04-16T18:44:11.323Z,12.39
2023-04-16T18:46:41.504Z,12.33
2023-04-16T18:49:14.463Z,12.29
2023-04-16T18:51:45.050Z,12.33
2023-04-16T18:54:15.446Z,12.40
2023-04-16T18:56:48.797Z,12.44
2023-04-16T18:59:19.104Z,12.40
2023-04-16T19:01:49.382Z,12.37
2023-04-16T19:04:22.476Z,12.38
2023-04-16T19:06:52.709Z,12.35
2023-04-16T19:09:23.063Z,12.38
2023-04-16T19:11:53.372Z,12.41
2023-04-16T19:14:23.713Z,12.39
2023-04-16T19:16:53.998Z,12.39
2023-04-16T19:19:26.896Z,12.39
2023-04-16T19:21:57.112Z,12.40
2023-04-16T19:24:27.452Z,12.41
2023-04-16T19:26:57.679Z,12.40
2023-04-16T19:29:28.148Z,12.43
2023-04-16T19:31:58.547Z,12.38
2023-04-16T19:34:31.570Z,12.35
2023-04-16T19:37:02.041Z,12.39
2023-04-16T19:39:33.395Z,12.40
2023-04-16T19:42:03.729Z,12.41
2023-04-16T19:44:33.952Z,12.36
2023-04-16T19:47:04.196Z,12.38
2023-04-16T19:49:38.528Z,12.37
2023-04-16T19:52:08.774Z,12.38
2023-04-16T19:54:39.006Z,12.40
2023-04-16T19:57:09.223Z,12.36
2023-04-16T19:59:39.545Z,12.38
2023-04-16T20:02:10.449Z,12.38
2023-04-16T20:04:43.427Z,12.37
2023-04-16T20:07:13.673Z,12.39
2023-04-16T20:09:43.892Z,12.39
2023-04-16T20:12:14.586Z,12.38
2023-04-16T20:14:45.113Z,12.37
2023-04-16T20:17:19.821Z,12.39
2023-04-16T20:19:52.755Z,12.39
2023-04-16T20:22:22.968Z,12.41
2023-04-16T20:24:55.387Z,12.42
2023-04-16T20:27:25.769Z,12.41
2023-04-16T20:29:56.696Z,12.36
2023-04-16T20:32:27.791Z,12.37
2023-04-16T20:35:02.214Z,12.37
2023-04-16T20:37:32.656Z,12.32
2023-04-16T20:40:04.793Z,12.31
2023-04-16T20:42:35.221Z,12.28
2023-04-16T20:45:05.445Z,12.28
2023-04-16T20:47:36.860Z,12.23
2023-04-16T20:50:11.339Z,12.21
2023-04-16T20:52:42.494Z,12.22
2023-04-16T20:55:13.148Z,12.11
2023-04-16T20:57:43.566Z,12.08
2023-04-16T21:00:15.318Z,12.05
2023-04-16T21:02:46.100Z,11.98
2023-04-16T21:05:22.896Z,12.00
2023-04-16T21:07:55.400Z,11.98
2023-04-16T21:10:26.223Z,12.01
2023-04-16T21:12:56.639Z,11.98
2023-04-16T21:15:27.158Z,12.02
2023-04-16T21:18:00.881Z,12.03
2023-04-16T21:20:33.938Z,12.06
2023-04-16T21:23:04.244Z,12.08
2023-04-16T21:25:35.135Z,12.09
2023-04-16T21:28:05.578Z,12.11
2023-04-16T21:30:36.142Z,12.07
2023-04-16T21:33:09.443Z,12.08
2023-04-16T21:35:42.317Z,11.96
2023-04-16T21:38:12.592Z,11.92
2023-04-16T21:40:45.287Z,11.88
2023-04-16T21:43:15.920Z,11.90
2023-04-16T21:45:46.217Z,11.92
2023-04-16T21:48:17.291Z,11.90
2023-04-16T21:50:50.351Z,11.99
2023-04-16T21:53:21.040Z,11.95
2023-04-16T21:55:51.358Z,11.96
2023-04-16T21:58:21.682Z,11.97
2023-04-16T22:00:52.002Z,11.95
2023-04-16T22:03:26.721Z,11.97
2023-04-16T22:06:04.404Z,11.90
2023-04-16T22:08:34.930Z,11.93
2023-04-16T22:11:06.077Z,11.83
2023-04-16T22:13:36.783Z,11.80
2023-04-16T22:16:09.405Z,11.86
2023-04-16T22:18:41.483Z,11.85
2023-04-16T22:21:14.403Z,11.79
2023-04-16T22:23:44.718Z,11.72
2023-04-16T22:26:15.082Z,11.72
2023-04-16T22:28:45.453Z,11.62
2023-04-16T22:31:15.869Z,11.66
2023-04-16T22:33:46.143Z,11.59
2023-04-16T22:36:19.062Z,11.61
2023-04-16T22:38:49.306Z,11.65
2023-04-16T22:41:19.596Z,11.61
2023-04-16T22:43:52.397Z,11.68
2023-04-16T22:46:24.992Z,11.70
2023-04-16T22:48:55.422Z,11.74
2023-04-16T22:51:28.352Z,11.77
2023-04-16T22:53:58.634Z,11.77
2023-04-16T22:56:30.626Z,11.76
2023-04-16T22:59:01.042Z,11.72
2023-04-16T23:01:31.430Z,11.74
2023-04-16T23:04:01.909Z,11.76
2023-04-16T23:06:34.835Z,11.74
2023-04-16T23:09:05.469Z,11.76
2023-04-16T23:11:35.693Z,11.77
2023-04-16T23:14:05.985Z,11.77
2023-04-16T23:16:36.285Z,11.75
2023-04-16T23:19:13.017Z,11.76
2023-04-16T23:21:46.147Z,11.77
2023-04-16T23:24:17.347Z,11.76
2023-04-16T23:26:48.266Z,11.73
2023-04-16T23:29:18.534Z,11.71
2023-04-16T23:31:48.979Z,11.73
2023-04-16T23:34:19.443Z,11.74
2023-04-16T23:36:52.535Z,11.72
2023-04-16T23:39:22.876Z,11.67
2023-04-16T23:41:53.148Z,11.68
2023-04-16T23:44:23.437Z,11.73
2023-04-16T23:46:53.813Z,11.73
2023-04-16T23:49:24.091Z,11.59
2023-04-16T23:51:56.981Z,11.65
2023-04-16T23:54:27.306Z,11.67
2023-04-16T23:56:57.433Z,11.67
2023-04-16T23:59:27.764Z,11.66
